Time;durP1;ratioP1;P1;durP2;ratioP2;P2;SDS_P1;SDS_P2;PMS_P1;PMS_P2;Temp;Humidity;BMP_temperature;BMP_pressure;BME280_temperature;BME280_humidity;BME280_pressure;Samples;Min_cycle;Max_cycle;Signal;HPM_P1;HPM_P2
2022/01/05 00:01:59;;;;;;;167.27;14.80;;;;;;;;;;5020622;28;20049;-65
2022/01/05 00:04:26;;;;;;;239.50;30.02;;;;;;;;;;5020307;28;20046;-71
2022/01/05 00:06:53;;;;;;;200.77;22.52;;;;;;;;;;5030232;28;20094;-69
2022/01/05 00:09:20;;;;;;;158.73;17.88;;;;;;;;;;5018689;28;20060;-69
2022/01/05 00:11:47;;;;;;;153.52;14.38;;;;;;;;;;5018124;28;20029;-67
2022/01/05 00:14:15;;;;;;;126.78;12.80;;;;;;;;;;5020663;28;20088;-66
2022/01/05 00:16:42;;;;;;;154.18;12.85;;;;;;;;;;5044602;28;20092;-65
2022/01/05 00:19:09;;;;;;;123.57;10.55;;;;;;;;;;5025836;28;20448;-66
2022/01/05 00:21:37;;;;;;;127.88;10.00;;;;;;;;;;5040640;28;20612;-67
2022/01/05 00:24:05;;;;;;;101.80;8.70;;;;;;;;;;5025339;28;20528;-66
2022/01/05 00:26:32;;;;;;;109.60;12.15;;;;;;;;;;5025950;28;20381;-69
2022/01/05 00:28:59;;;;;;;116.63;11.85;;;;;;;;;;5037992;28;20086;-70
2022/01/05 00:31:26;;;;;;;116.00;11.40;;;;;;;;;;5029769;28;20101;-72
2022/01/05 00:33:53;;;;;;;180.85;16.85;;;;;;;;;;5027285;28;20024;-69
2022/01/05 00:36:21;;;;;;;165.82;15.75;;;;;;;;;;5041280;28;20033;-69
2022/01/05 00:38:48;;;;;;;141.07;12.27;;;;;;;;;;5027896;28;20037;-68
2022/01/05 00:41:15;;;;;;;104.53;10.32;;;;;;;;;;5029013;28;20040;-67
2022/01/05 00:43:42;;;;;;;101.53;8.93;;;;;;;;;;5015730;28;20037;-67
2022/01/05 00:46:09;;;;;;;82.78;10.23;;;;;;;;;;5031370;28;20084;-68
2022/01/05 00:48:36;;;;;;;89.80;9.88;;;;;;;;;;5024243;28;20034;-68
2022/01/05 00:51:04;;;;;;;68.85;10.35;;;;;;;;;;5025901;28;20105;-69
2022/01/05 00:53:31;;;;;;;62.25;8.70;;;;;;;;;;5026698;28;20026;-71
2022/01/05 00:55:58;;;;;;;81.13;9.73;;;;;;;;;;5023221;28;20384;-71
2022/01/05 00:58:25;;;;;;;69.70;8.23;;;;;;;;;;5030687;28;20024;-68
2022/01/05 01:00:52;;;;;;;47.78;7.05;;;;;;;;;;5033169;28;20049;-70
2022/01/05 01:03:19;;;;;;;43.85;5.57;;;;;;;;;;5028033;28;20041;-66
2022/01/05 01:05:46;;;;;;;44.35;5.25;;;;;;;;;;5026446;28;20696;-67
2022/01/05 01:08:13;;;;;;;54.63;6.15;;;;;;;;;;5025690;28;20531;-67
2022/01/05 01:10:40;;;;;;;59.20;5.78;;;;;;;;;;5023472;28;20033;-66
2022/01/05 01:13:07;;;;;;;49.47;6.32;;;;;;;;;;5025656;28;20117;-69
2022/01/05 01:15:35;;;;;;;70.07;6.25;;;;;;;;;;5022821;28;20841;-68
2022/01/05 01:18:01;;;;;;;72.90;7.10;;;;;;;;;;5024737;28;20056;-71
2022/01/05 01:20:29;;;;;;;49.67;5.80;;;;;;;;;;5017663;28;20116;-75
2022/01/05 01:22:56;;;;;;;51.35;5.63;;;;;;;;;;5021056;28;20032;-68
2022/01/05 01:25:23;;;;;;;36.95;4.13;;;;;;;;;;5022752;28;20030;-71
2022/01/05 01:27:50;;;;;;;46.95;5.07;;;;;;;;;;5021776;28;20492;-67
2022/01/05 01:30:17;;;;;;;48.97;5.78;;;;;;;;;;5026470;28;20480;-73
2022/01/05 01:32:44;;;;;;;74.70;6.97;;;;;;;;;;5029439;28;20022;-65
2022/01/05 01:35:11;;;;;;;40.50;4.78;;;;;;;;;;5029290;28;20495;-71
2022/01/05 01:37:38;;;;;;;30.58;3.88;;;;;;;;;;5026454;28;20431;-65
2022/01/05 01:40:06;;;;;;;34.83;5.07;;;;;;;;;;5026868;28;20022;-65
2022/01/05 01:42:34;;;;;;;38.45;4.13;;;;;;;;;;5025706;28;20043;-66
2022/01/05 01:45:01;;;;;;;31.80;3.92;;;;;;;;;;5020992;28;20021;-65
2022/01/05 01:47:28;;;;;;;17.13;3.30;;;;;;;;;;5023863;28;20104;-65
2022/01/05 01:49:55;;;;;;;19.92;3.15;;;;;;;;;;5022903;28;20056;-66
2022/01/05 01:52:22;;;;;;;21.45;3.72;;;;;;;;;;5028318;28;20395;-68
2022/01/05 01:54:49;;;;;;;21.95;3.83;;;;;;;;;;5026947;28;20022;-66
2022/01/05 01:57:16;;;;;;;26.58;3.70;;;;;;;;;;5021877;28;20033;-66
2022/01/05 01:59:44;;;;;;;36.50;5.28;;;;;;;;;;5022246;28;20072;-67
2022/01/05 02:02:12;;;;;;;44.63;4.43;;;;;;;;;;5022659;28;20576;-66
2022/01/05 02:04:41;;;;;;;36.38;4.78;;;;;;;;;;5021643;28;20362;-65
2022/01/05 02:07:08;;;;;;;24.95;3.55;;;;;;;;;;5022216;28;20034;-67
2022/01/05 02:09:35;;;;;;;26.35;4.05;;;;;;;;;;5024014;28;20033;-67
2022/01/05 02:12:02;;;;;;;27.60;4.18;;;;;;;;;;5029670;28;20026;-66
2022/01/05 02:14:29;;;;;;;30.83;3.97;;;;;;;;;;5028227;28;20344;-65
2022/01/05 02:16:58;;;;;;;20.27;3.15;;;;;;;;;;5022779;28;20496;-70
2022/01/05 02:19:25;;;;;;;23.88;3.60;;;;;;;;;;5023638;28;20034;-68
2022/01/05 02:21:52;;;;;;;22.33;3.58;;;;;;;;;;5024034;28;20030;-68
2022/01/05 02:24:19;;;;;;;27.75;3.00;;;;;;;;;;5027420;28;20056;-69
2022/01/05 02:26:46;;;;;;;22.65;4.20;;;;;;;;;;5018922;28;20498;-67
2022/01/05 02:29:13;;;;;;;25.38;3.15;;;;;;;;;;5026645;28;20033;-66
2022/01/05 02:31:41;;;;;;;15.82;3.53;;;;;;;;;;5025825;28;20022;-67
2022/01/05 02:34:08;;;;;;;22.85;3.70;;;;;;;;;;5015865;28;20025;-67
2022/01/05 02:36:35;;;;;;;17.55;2.72;;;;;;;;;;5013014;28;20030;-67
2022/01/05 02:39:02;;;;;;;19.13;2.78;;;;;;;;;;5012986;28;20026;-71
2022/01/05 02:41:29;;;;;;;17.33;2.90;;;;;;;;;;5020079;28;20021;-65
2022/01/05 02:43:57;;;;;;;18.92;2.83;;;;;;;;;;5013435;28;20069;-71
2022/01/05 02:46:24;;;;;;;33.17;3.30;;;;;;;;;;5012300;28;20028;-65
2022/01/05 02:48:53;;;;;;;48.30;3.70;;;;;;;;;;5012653;28;20036;-68
2022/01/05 02:51:21;;;;;;;48.65;3.42;;;;;;;;;;5012721;28;20030;-73
2022/01/05 02:53:48;;;;;;;35.60;3.83;;;;;;;;;;5012440;28;20033;-65
2022/01/05 02:56:15;;;;;;;45.45;3.30;;;;;;;;;;5021082;28;20114;-67
2022/01/05 02:58:42;;;;;;;29.23;2.88;;;;;;;;;;5031416;28;20451;-65
2022/01/05 03:01:09;;;;;;;33.78;2.47;;;;;;;;;;5031638;28;20061;-65
2022/01/05 03:03:36;;;;;;;24.00;2.85;;;;;;;;;;5032070;28;20042;-67
2022/01/05 03:06:03;;;;;;;22.05;2.15;;;;;;;;;;5032163;28;20029;-69
2022/01/05 03:08:31;;;;;;;29.77;3.08;;;;;;;;;;5031795;28;20116;-70
2022/01/05 03:10:59;;;;;;;38.25;2.72;;;;;;;;;;5018659;28;20096;-67
2022/01/05 03:13:26;;;;;;;17.73;2.70;;;;;;;;;;5011827;28;20466;-71
2022/01/05 03:15:54;;;;;;;28.67;3.38;;;;;;;;;;5011749;28;20064;-65
2022/01/05 03:18:22;;;;;;;28.77;2.85;;;;;;;;;;5012086;28;20108;-69
2022/01/05 03:20:49;;;;;;;24.38;2.92;;;;;;;;;;5010930;28;20022;-75
2022/01/05 03:23:17;;;;;;;26.00;2.30;;;;;;;;;;5012094;28;20073;-65
2022/01/05 03:25:44;;;;;;;28.55;3.17;;;;;;;;;;5012050;28;20026;-65
2022/01/05 03:28:11;;;;;;;21.10;2.60;;;;;;;;;;5011989;28;20109;-67
2022/01/05 03:30:40;;;;;;;35.85;3.85;;;;;;;;;;5011737;28;20173;-75
2022/01/05 03:33:20;;;;;;;33.90;3.75;;;;;;;;;;5011712;28;20448;-73
2022/01/05 03:35:48;;;;;;;37.80;3.53;;;;;;;;;;5012009;28;20412;-71
2022/01/05 03:38:16;;;;;;;29.92;2.55;;;;;;;;;;5012054;28;20022;-67
2022/01/05 03:40:44;;;;;;;31.80;3.38;;;;;;;;;;5012201;28;20030;-73
2022/01/05 03:43:12;;;;;;;29.65;3.55;;;;;;;;;;5011937;28;20717;-75
2022/01/05 03:45:39;;;;;;;28.80;3.33;;;;;;;;;;5011899;28;20493;-69
2022/01/05 03:48:07;;;;;;;24.38;3.25;;;;;;;;;;5012132;28;20026;-69
2022/01/05 03:50:35;;;;;;;36.05;3.25;;;;;;;;;;5011850;28;20038;-67
2022/01/05 03:53:04;;;;;;;18.90;3.20;;;;;;;;;;5011292;28;20018;-70
2022/01/05 03:55:31;;;;;;;25.42;3.25;;;;;;;;;;5011960;28;20022;-66
2022/01/05 03:57:58;;;;;;;21.50;3.22;;;;;;;;;;5011876;28;20029;-76
2022/01/05 04:00:27;;;;;;;39.22;3.03;;;;;;;;;;5011844;28;20640;-70
2022/01/05 04:02:54;;;;;;;24.92;3.17;;;;;;;;;;5011576;28;20065;-67
2022/01/05 04:05:21;;;;;;;32.88;3.67;;;;;;;;;;5011927;28;20029;-69
2022/01/05 04:07:49;;;;;;;32.30;3.45;;;;;;;;;;5011737;28;20108;-72
2022/01/05 04:10:17;;;;;;;27.20;2.83;;;;;;;;;;5011685;28;20085;-72
2022/01/05 04:12:45;;;;;;;33.35;3.35;;;;;;;;;;5011841;28;20478;-70
2022/01/05 04:15:12;;;;;;;21.67;2.80;;;;;;;;;;5011710;28;20388;-69
2022/01/05 04:17:39;;;;;;;30.25;3.38;;;;;;;;;;5011654;28;20021;-70
2022/01/05 04:20:06;;;;;;;35.45;3.22;;;;;;;;;;5011848;28;20061;-72
2022/01/05 04:22:33;;;;;;;29.40;3.30;;;;;;;;;;5011546;28;20026;-67
2022/01/05 04:25:00;;;;;;;32.72;3.60;;;;;;;;;;5010365;28;20030;-71
2022/01/05 04:27:28;;;;;;;32.85;3.00;;;;;;;;;;5011796;28;20022;-67
2022/01/05 04:29:55;;;;;;;26.30;4.03;;;;;;;;;;5011593;28;20066;-69
2022/01/05 04:32:22;;;;;;;24.40;2.85;;;;;;;;;;5011520;28;20025;-74
2022/01/05 04:34:50;;;;;;;26.48;2.70;;;;;;;;;;5011594;28;20113;-72
2022/01/05 04:37:17;;;;;;;27.67;3.53;;;;;;;;;;5011553;28;20053;-67
2022/01/05 04:39:44;;;;;;;35.17;3.70;;;;;;;;;;5011385;28;20061;-71
2022/01/05 04:42:11;;;;;;;31.38;3.20;;;;;;;;;;5011610;28;20110;-70
2022/01/05 04:44:38;;;;;;;28.83;2.95;;;;;;;;;;5011321;28;20500;-68
2022/01/05 04:47:07;;;;;;;28.00;3.40;;;;;;;;;;5010031;28;20366;-66
2022/01/05 04:49:34;;;;;;;22.55;3.08;;;;;;;;;;5011562;28;20424;-72
2022/01/05 04:52:01;;;;;;;31.08;3.47;;;;;;;;;;5195127;22;20553;-68
2022/01/05 04:54:28;;;;;;;30.88;4.03;;;;;;;;;;5030882;28;20033;-70
2022/01/05 04:56:55;;;;;;;22.17;3.10;;;;;;;;;;5030723;28;20246;-70
2022/01/05 04:59:22;;;;;;;30.35;2.72;;;;;;;;;;5030673;28;20022;-74
2022/01/05 05:01:49;;;;;;;32.95;3.25;;;;;;;;;;5030663;28;20029;-70
2022/01/05 05:04:16;;;;;;;31.85;3.65;;;;;;;;;;5033431;28;20106;-71
2022/01/05 05:06:43;;;;;;;28.10;2.95;;;;;;;;;;5033071;28;20017;-69
2022/01/05 05:09:10;;;;;;;21.45;2.75;;;;;;;;;;5034319;28;20029;-72
2022/01/05 05:11:37;;;;;;;24.98;2.80;;;;;;;;;;5034127;28;20029;-71
2022/01/05 05:14:04;;;;;;;24.52;3.25;;;;;;;;;;5034191;28;20029;-69
2022/01/05 05:16:31;;;;;;;19.35;3.13;;;;;;;;;;5049538;28;20511;-69
2022/01/05 05:18:58;;;;;;;17.48;2.28;;;;;;;;;;5034150;28;20427;-71
2022/01/05 05:21:25;;;;;;;17.38;3.03;;;;;;;;;;5033970;28;20033;-68
2022/01/05 05:23:52;;;;;;;25.08;3.95;;;;;;;;;;5033910;28;20041;-72
2022/01/05 05:26:19;;;;;;;22.20;3.25;;;;;;;;;;5033928;28;20017;-70
2022/01/05 05:28:46;;;;;;;17.08;3.00;;;;;;;;;;5033800;28;20032;-70
2022/01/05 05:31:13;;;;;;;39.08;3.35;;;;;;;;;;5034001;28;20022;-67
2022/01/05 05:33:40;;;;;;;28.20;3.92;;;;;;;;;;5033571;28;20116;-71
2022/01/05 05:36:07;;;;;;;19.10;3.10;;;;;;;;;;5033725;28;20396;-72
2022/01/05 05:38:34;;;;;;;28.10;3.25;;;;;;;;;;5033651;28;20049;-66
2022/01/05 05:41:01;;;;;;;25.48;3.10;;;;;;;;;;5033544;28;20028;-65
2022/01/05 05:43:28;;;;;;;24.50;3.58;;;;;;;;;;5033428;28;20037;-66
2022/01/05 05:45:55;;;;;;;20.50;2.63;;;;;;;;;;5033725;28;20130;-67
2022/01/05 05:48:22;;;;;;;37.83;3.22;;;;;;;;;;5033360;28;20021;-66
2022/01/05 05:50:49;;;;;;;29.23;3.53;;;;;;;;;;5033409;28;20026;-66
2022/01/05 05:53:16;;;;;;;17.73;2.25;;;;;;;;;;5032973;28;20041;-65
2022/01/05 05:55:43;;;;;;;19.42;2.67;;;;;;;;;;5033366;28;20057;-66
2022/01/05 05:58:10;;;;;;;24.15;3.03;;;;;;;;;;5033326;28;20016;-66
2022/01/05 06:00:37;;;;;;;23.85;2.33;;;;;;;;;;5033444;28;20029;-64
2022/01/05 06:03:04;;;;;;;21.52;2.80;;;;;;;;;;5032886;28;20401;-65
2022/01/05 06:05:31;;;;;;;21.35;2.85;;;;;;;;;;5032676;28;20026;-68
2022/01/05 06:07:58;;;;;;;20.73;2.92;;;;;;;;;;5033507;28;20017;-66
2022/01/05 06:10:25;;;;;;;26.50;2.65;;;;;;;;;;5032855;28;20055;-65
2022/01/05 06:12:52;;;;;;;23.83;2.47;;;;;;;;;;5033194;28;20477;-68
2022/01/05 06:15:19;;;;;;;21.77;3.15;;;;;;;;;;5031367;28;20457;-66
2022/01/05 06:17:46;;;;;;;18.02;2.20;;;;;;;;;;5032894;28;20017;-67
2022/01/05 06:20:13;;;;;;;21.40;2.40;;;;;;;;;;5033331;28;20033;-68
2022/01/05 06:22:41;;;;;;;27.65;2.90;;;;;;;;;;5033094;28;20021;-67
2022/01/05 06:25:09;;;;;;;21.00;2.90;;;;;;;;;;5033101;28;20080;-66
2022/01/05 06:27:36;;;;;;;27.65;3.42;;;;;;;;;;5033088;28;20022;-67
2022/01/05 06:30:06;;;;;;;22.50;2.42;;;;;;;;;;5033349;28;20091;-67
2022/01/05 06:32:34;;;;;;;16.05;2.22;;;;;;;;;;5033120;28;20025;-68
2022/01/05 06:35:05;;;;;;;23.13;2.65;;;;;;;;;;5032942;28;20021;-67
2022/01/05 06:37:32;;;;;;;21.38;2.20;;;;;;;;;;5032820;28;20369;-69
2022/01/05 06:39:59;;;;;;;26.73;2.60;;;;;;;;;;5031761;28;20530;-70
2022/01/05 06:42:26;;;;;;;14.30;2.38;;;;;;;;;;5031315;28;20404;-67
2022/01/05 06:44:53;;;;;;;22.13;3.70;;;;;;;;;;5032685;28;20484;-69
2022/01/05 06:47:20;;;;;;;24.23;2.13;;;;;;;;;;5032883;28;20029;-67
2022/01/05 06:49:47;;;;;;;18.90;2.35;;;;;;;;;;5032610;28;20159;-69
2022/01/05 06:52:14;;;;;;;20.08;2.90;;;;;;;;;;5030944;28;20713;-69
2022/01/05 06:54:41;;;;;;;41.00;2.78;;;;;;;;;;5032696;28;20029;-67
2022/01/05 06:57:09;;;;;;;24.73;3.45;;;;;;;;;;5032544;28;20022;-67
2022/01/05 06:59:36;;;;;;;17.30;2.70;;;;;;;;;;5032541;28;20026;-73
2022/01/05 07:02:04;;;;;;;17.52;1.80;;;;;;;;;;5032491;28;20017;-69
2022/01/05 07:04:31;;;;;;;16.95;2.10;;;;;;;;;;5032243;28;20033;-67
2022/01/05 07:06:58;;;;;;;17.08;2.22;;;;;;;;;;5032262;28;20017;-67
2022/01/05 07:09:25;;;;;;;26.55;2.97;;;;;;;;;;5032378;28;20053;-68
2022/01/05 07:11:52;;;;;;;35.05;3.63;;;;;;;;;;5032211;28;20025;-70
2022/01/05 07:14:18;;;;;;;22.10;2.55;;;;;;;;;;5032134;28;20028;-68
2022/01/05 07:16:45;;;;;;;21.35;1.95;;;;;;;;;;5032273;28;20060;-68
2022/01/05 07:19:13;;;;;;;22.77;2.65;;;;;;;;;;5032017;28;20101;-67
2022/01/05 07:21:40;;;;;;;18.13;2.47;;;;;;;;;;5031992;28;20116;-71
2022/01/05 07:24:12;;;;;;;25.95;2.33;;;;;;;;;;5032108;28;20112;-69
2022/01/05 07:26:41;;;;;;;14.57;2.07;;;;;;;;;;5029664;28;20396;-72
2022/01/05 07:29:08;;;;;;;22.85;2.60;;;;;;;;;;5031872;28;20033;-72
2022/01/05 07:31:35;;;;;;;18.55;2.95;;;;;;;;;;5031869;28;20044;-72
2022/01/05 07:34:02;;;;;;;20.48;2.28;;;;;;;;;;5031915;28;20090;-71
2022/01/05 07:36:29;;;;;;;11.50;2.22;;;;;;;;;;5031847;28;20026;-72
2022/01/05 07:38:56;;;;;;;18.98;2.25;;;;;;;;;;5031785;28;20036;-73
2022/01/05 07:41:23;;;;;;;16.20;2.10;;;;;;;;;;5031934;28;20381;-68
2022/01/05 07:43:51;;;;;;;19.75;2.50;;;;;;;;;;5030371;28;20029;-69
2022/01/05 07:46:18;;;;;;;22.50;2.45;;;;;;;;;;5031559;28;20033;-68
2022/01/05 07:48:46;;;;;;;22.40;2.92;;;;;;;;;;5031701;28;20036;-68
2022/01/05 07:51:13;;;;;;;17.83;2.08;;;;;;;;;;5031623;28;20028;-68
2022/01/05 07:53:41;;;;;;;22.77;2.38;;;;;;;;;;5031279;28;20413;-70
2022/01/05 07:56:08;;;;;;;18.38;2.50;;;;;;;;;;5021904;28;20034;-69
2022/01/05 07:58:36;;;;;;;11.52;2.42;;;;;;;;;;5011810;28;20109;-68
2022/01/05 08:01:06;;;;;;;19.67;2.85;;;;;;;;;;5012029;28;20018;-72
2022/01/05 08:03:34;;;;;;;16.75;2.25;;;;;;;;;;5011744;28;20030;-70
2022/01/05 08:06:01;;;;;;;15.88;2.65;;;;;;;;;;5011785;28;20084;-69
2022/01/05 08:08:28;;;;;;;11.43;1.65;;;;;;;;;;5011752;28;20033;-67
2022/01/05 08:10:56;;;;;;;17.30;2.42;;;;;;;;;;5010551;28;20029;-70
2022/01/05 08:13:24;;;;;;;19.10;2.53;;;;;;;;;;5011692;28;20793;-69
2022/01/05 08:15:51;;;;;;;19.48;2.10;;;;;;;;;;5011541;28;20100;-69
2022/01/05 08:18:19;;;;;;;23.85;2.97;;;;;;;;;;5011633;28;20100;-71
2022/01/05 08:20:46;;;;;;;26.83;2.60;;;;;;;;;;5011909;28;20022;-68
2022/01/05 08:23:19;;;;;;;15.40;2.35;;;;;;;;;;5011683;28;20440;-67
2022/01/05 08:25:47;;;;;;;24.52;2.03;;;;;;;;;;5011668;28;20021;-66
2022/01/05 08:28:15;;;;;;;18.65;2.20;;;;;;;;;;5011755;28;20109;-70
2022/01/05 08:30:44;;;;;;;18.95;2.72;;;;;;;;;;5011543;28;20022;-67
2022/01/05 08:33:11;;;;;;;27.80;3.13;;;;;;;;;;5011240;28;20034;-70
2022/01/05 08:35:39;;;;;;;15.30;2.33;;;;;;;;;;5011745;28;20053;-69
2022/01/05 08:38:06;;;;;;;14.20;2.42;;;;;;;;;;5012628;28;20480;-72
2022/01/05 08:40:35;;;;;;;22.58;2.13;;;;;;;;;;5015581;28;20412;-70
2022/01/05 08:43:03;;;;;;;23.63;2.90;;;;;;;;;;5015293;28;20034;-65
2022/01/05 08:45:30;;;;;;;17.35;2.45;;;;;;;;;;5015321;28;20572;-67
2022/01/05 08:47:58;;;;;;;12.50;2.15;;;;;;;;;;5015223;28;20051;-66
2022/01/05 08:50:27;;;;;;;15.93;2.25;;;;;;;;;;5015211;28;20025;-67
2022/01/05 08:52:56;;;;;;;18.65;2.42;;;;;;;;;;5015028;28;20738;-66
2022/01/05 08:55:24;;;;;;;30.52;2.90;;;;;;;;;;5014967;28;20088;-67
2022/01/05 08:57:51;;;;;;;26.85;3.08;;;;;;;;;;5014974;28;20025;-66
2022/01/05 09:00:18;;;;;;;25.58;2.65;;;;;;;;;;5015033;28;20113;-68
2022/01/05 09:02:46;;;;;;;19.85;2.72;;;;;;;;;;5014835;28;20076;-66
2022/01/05 09:05:13;;;;;;;18.55;3.15;;;;;;;;;;5014924;28;20030;-66
2022/01/05 09:07:40;;;;;;;25.95;2.38;;;;;;;;;;5014994;28;20052;-67
2022/01/05 09:10:08;;;;;;;27.85;2.85;;;;;;;;;;5014770;28;20481;-67
2022/01/05 09:12:35;;;;;;;31.98;2.80;;;;;;;;;;5014679;28;20390;-68
2022/01/05 09:15:03;;;;;;;21.50;2.67;;;;;;;;;;5015064;28;20030;-67
2022/01/05 09:17:30;;;;;;;24.40;3.17;;;;;;;;;;5014659;28;20033;-67
2022/01/05 09:19:57;;;;;;;33.97;3.25;;;;;;;;;;5014619;28;20032;-66
2022/01/05 09:22:24;;;;;;;23.00;3.42;;;;;;;;;;5014682;28;20018;-67
2022/01/05 09:24:51;;;;;;;30.58;4.38;;;;;;;;;;5014675;28;20438;-69
2022/01/05 09:27:20;;;;;;;20.05;4.00;;;;;;;;;;5014430;28;20029;-68
2022/01/05 09:29:47;;;;;;;18.77;3.45;;;;;;;;;;5014573;28;20030;-67
2022/01/05 09:32:15;;;;;;;27.00;4.03;;;;;;;;;;5014539;28;20037;-68
2022/01/05 09:34:42;;;;;;;22.42;3.08;;;;;;;;;;5014342;28;20018;-69
2022/01/05 09:37:33;;;;;;;29.48;3.80;;;;;;;;;;5012963;28;20057;-66
2022/01/05 09:42:46;;;;;;;20.98;2.95;;;;;;;;;;5014275;28;20041;-67
2022/01/05 09:45:16;;;;;;;34.40;4.43;;;;;;;;;;5013738;28;20030;-67
2022/01/05 09:47:46;;;;;;;18.23;3.65;;;;;;;;;;5011967;28;20022;-67
2022/01/05 09:50:15;;;;;;;30.25;3.42;;;;;;;;;;5008942;28;20026;-71
2022/01/05 09:52:44;;;;;;;24.55;3.08;;;;;;;;;;5013404;28;20509;-69
2022/01/05 09:55:12;;;;;;;25.77;3.10;;;;;;;;;;5014074;28;20092;-67
2022/01/05 09:57:41;;;;;;;33.65;3.08;;;;;;;;;;5012516;28;20113;-67
2022/01/05 10:00:11;;;;;;;35.85;4.15;;;;;;;;;;5013695;28;20029;-69
2022/01/05 10:02:38;;;;;;;27.27;3.33;;;;;;;;;;5013918;28;20022;-68
2022/01/05 10:05:08;;;;;;;30.05;3.22;;;;;;;;;;5013681;28;20117;-73
2022/01/05 10:07:35;;;;;;;29.17;4.78;;;;;;;;;;5013697;28;20033;-71
2022/01/05 10:10:03;;;;;;;25.75;5.90;;;;;;;;;;5013843;28;20026;-71
2022/01/05 10:12:30;;;;;;;45.75;7.03;;;;;;;;;;5013601;28;20026;-73
2022/01/05 10:14:57;;;;;;;31.42;5.97;;;;;;;;;;5013627;28;20052;-69
2022/01/05 10:17:31;;;;;;;35.20;7.40;;;;;;;;;;5013627;28;20034;-72
2022/01/05 10:19:59;;;;;;;36.42;8.05;;;;;;;;;;5012094;28;20049;-72
2022/01/05 10:22:36;;;;;;;33.28;8.07;;;;;;;;;;5013384;28;20033;-70
2022/01/05 10:25:07;;;;;;;37.33;7.28;;;;;;;;;;5013117;28;20036;-71
2022/01/05 10:27:35;;;;;;;38.25;7.90;;;;;;;;;;5013300;28;20072;-69
2022/01/05 10:30:12;;;;;;;35.65;6.80;;;;;;;;;;5013328;28;20036;-67
2022/01/05 10:32:39;;;;;;;31.45;7.28;;;;;;;;;;5013070;28;20026;-69
2022/01/05 10:35:11;;;;;;;33.72;5.82;;;;;;;;;;5013045;28;20477;-66
2022/01/05 10:37:40;;;;;;;28.40;4.40;;;;;;;;;;5013348;28;20029;-69
2022/01/05 10:40:20;;;;;;;42.65;5.32;;;;;;;;;;5013250;28;20359;-68
2022/01/05 10:42:48;;;;;;;38.15;5.40;;;;;;;;;;5012898;28;20034;-69
2022/01/05 10:45:19;;;;;;;35.08;4.80;;;;;;;;;;5013022;28;20029;-69
2022/01/05 10:48:07;;;;;;;31.92;5.53;;;;;;;;;;5013068;28;20030;-68
2022/01/05 10:50:35;;;;;;;27.02;4.35;;;;;;;;;;5012842;28;20024;-69
2022/01/05 10:53:02;;;;;;;25.20;4.03;;;;;;;;;;5012797;28;20141;-68
2022/01/05 10:55:30;;;;;;;16.40;3.60;;;;;;;;;;5012795;28;20018;-70
2022/01/05 10:58:10;;;;;;;23.92;3.40;;;;;;;;;;5011887;28;20034;-67
2022/01/05 11:00:44;;;;;;;21.63;3.60;;;;;;;;;;5025024;28;20084;-70
2022/01/05 11:03:25;;;;;;;21.33;2.97;;;;;;;;;;5031716;28;20055;-70
2022/01/05 11:06:02;;;;;;;28.00;3.15;;;;;;;;;;5027991;28;20057;-67
2022/01/05 11:08:30;;;;;;;12.60;2.72;;;;;;;;;;5031031;28;20017;-68
2022/01/05 11:10:57;;;;;;;17.60;2.90;;;;;;;;;;5030858;28;20239;-69
2022/01/05 11:13:27;;;;;;;20.60;2.75;;;;;;;;;;5029465;28;20036;-68
2022/01/05 11:15:57;;;;;;;21.10;3.35;;;;;;;;;;5012245;28;20026;-70
2022/01/05 11:18:29;;;;;;;22.00;3.63;;;;;;;;;;5011559;28;20494;-66
2022/01/05 11:21:04;;;;;;;27.47;2.73;;;;;;;;;;5011527;28;20030;-71
2022/01/05 11:23:32;;;;;;;29.30;3.40;;;;;;;;;;5010935;28;20026;-70
2022/01/05 11:26:00;;;;;;;21.98;3.53;;;;;;;;;;5012179;28;20026;-68
2022/01/05 11:28:28;;;;;;;17.38;2.80;;;;;;;;;;5012166;28;20047;-70
2022/01/05 11:30:56;;;;;;;44.75;3.55;;;;;;;;;;5011443;28;20133;-72
2022/01/05 11:33:23;;;;;;;29.45;2.85;;;;;;;;;;5011498;28;20018;-71
2022/01/05 11:35:50;;;;;;;36.30;3.63;;;;;;;;;;5012074;28;20018;-73
2022/01/05 11:38:17;;;;;;;19.73;2.67;;;;;;;;;;5012152;28;20105;-70
2022/01/05 11:40:55;;;;;;;26.90;3.28;;;;;;;;;;5011466;28;20033;-71
2022/01/05 11:43:24;;;;;;;29.75;2.72;;;;;;;;;;5011451;28;20030;-68
2022/01/05 11:45:52;;;;;;;14.48;2.20;;;;;;;;;;5011434;28;20113;-67
2022/01/05 11:48:19;;;;;;;24.92;2.42;;;;;;;;;;5010119;28;20057;-67
2022/01/05 11:50:48;;;;;;;27.77;2.67;;;;;;;;;;5011891;28;20497;-65
2022/01/05 11:53:17;;;;;;;17.15;2.15;;;;;;;;;;5015982;28;20128;-67
2022/01/05 11:55:59;;;;;;;20.05;2.58;;;;;;;;;;5030258;28;20536;-67
2022/01/05 11:58:28;;;;;;;21.02;2.40;;;;;;;;;;5031517;28;20025;-68
2022/01/05 12:01:18;;;;;;;20.17;2.55;;;;;;;;;;5028302;28;20029;-69
2022/01/05 12:03:57;;;;;;;48.30;3.85;;;;;;;;;;5025651;28;20432;-68
2022/01/05 12:06:25;;;;;;;27.55;2.55;;;;;;;;;;5030326;28;20425;-66
2022/01/05 12:08:53;;;;;;;29.77;3.70;;;;;;;;;;5012240;28;20022;-66
2022/01/05 12:11:41;;;;;;;31.15;2.83;;;;;;;;;;5019233;28;20014;-67
2022/01/05 12:14:24;;;;;;;52.55;3.45;;;;;;;;;;5012261;28;20040;-68
2022/01/05 12:16:57;;;;;;;17.73;3.38;;;;;;;;;;5015229;28;20080;-66
2022/01/05 12:19:24;;;;;;;24.92;3.40;;;;;;;;;;5027486;28;20037;-67
2022/01/05 12:21:53;;;;;;;23.40;2.53;;;;;;;;;;5034252;28;20030;-70
2022/01/05 12:24:20;;;;;;;26.08;2.75;;;;;;;;;;5021784;28;20438;-65
2022/01/05 12:27:13;;;;;;;23.27;2.38;;;;;;;;;;5022404;28;20168;-67
2022/01/05 12:29:42;;;;;;;32.78;3.40;;;;;;;;;;5022726;28;20613;-67
2022/01/05 12:32:10;;;;;;;21.27;3.30;;;;;;;;;;5016257;28;20101;-68
2022/01/05 12:34:54;;;;;;;30.73;2.97;;;;;;;;;;5025674;28;20473;-70
2022/01/05 12:37:41;;;;;;;16.48;2.72;;;;;;;;;;5020146;28;20080;-69
2022/01/05 12:40:26;;;;;;;42.13;3.88;;;;;;;;;;5017767;28;20030;-68
2022/01/05 12:43:16;;;;;;;15.50;2.22;;;;;;;;;;5025330;28;20052;-68
2022/01/05 12:45:47;;;;;;;289.02;24.33;;;;;;;;;;5029325;28;20033;-67
2022/01/05 12:48:36;;;;;;;93.22;7.85;;;;;;;;;;5014668;28;20393;-68
2022/01/05 12:51:20;;;;;;;72.65;5.38;;;;;;;;;;5018583;28;20033;-70
2022/01/05 12:54:01;;;;;;;84.68;6.88;;;;;;;;;;5017684;28;20046;-69
2022/01/05 12:56:40;;;;;;;65.43;5.82;;;;;;;;;;5018686;28;20033;-68
2022/01/05 12:59:09;;;;;;;46.33;5.03;;;;;;;;;;5025968;28;20033;-68
2022/01/05 13:01:36;;;;;;;45.05;4.13;;;;;;;;;;5024920;28;20080;-67
2022/01/05 13:04:10;;;;;;;31.80;3.22;;;;;;;;;;5029130;28;20034;-68
2022/01/05 13:06:38;;;;;;;54.25;3.53;;;;;;;;;;5021361;28;20112;-68
2022/01/05 13:09:10;;;;;;;23.10;2.70;;;;;;;;;;5031181;28;20037;-67
2022/01/05 13:11:40;;;;;;;35.43;3.33;;;;;;;;;;5026970;28;20033;-68
2022/01/05 13:14:11;;;;;;;21.80;2.83;;;;;;;;;;5017538;28;20034;-68
2022/01/05 13:16:38;;;;;;;19.50;3.17;;;;;;;;;;5020673;28;20071;-67
2022/01/05 13:19:10;;;;;;;21.85;2.70;;;;;;;;;;5030163;28;20288;-67
2022/01/05 13:21:44;;;;;;;27.65;2.70;;;;;;;;;;5027112;28;20485;-67
2022/01/05 13:24:11;;;;;;;26.95;2.83;;;;;;;;;;5021164;28;20040;-67
2022/01/05 13:26:58;;;;;;;22.70;2.83;;;;;;;;;;5027328;28;20025;-71
2022/01/05 13:29:28;;;;;;;23.17;2.83;;;;;;;;;;5026972;28;20018;-67
2022/01/05 13:31:59;;;;;;;21.15;2.58;;;;;;;;;;5025027;28;20088;-67
2022/01/05 13:34:30;;;;;;;26.23;2.83;;;;;;;;;;5017805;28;20087;-66
2022/01/05 13:36:57;;;;;;;21.92;2.90;;;;;;;;;;5019472;28;20037;-68
2022/01/05 13:39:39;;;;;;;23.75;2.63;;;;;;;;;;5023606;28;20428;-66
2022/01/05 13:42:17;;;;;;;15.75;2.20;;;;;;;;;;5020635;28;20359;-67
2022/01/05 13:44:45;;;;;;;21.25;3.00;;;;;;;;;;5024158;28;20037;-70
2022/01/05 13:47:14;;;;;;;20.25;2.20;;;;;;;;;;5029360;28;20136;-65
2022/01/05 13:49:41;;;;;;;18.27;2.30;;;;;;;;;;5027677;28;20033;-64
2022/01/05 13:52:12;;;;;;;26.85;2.55;;;;;;;;;;5024704;28;20029;-65
2022/01/05 13:54:44;;;;;;;18.63;2.17;;;;;;;;;;5020778;28;20021;-66
2022/01/05 13:57:31;;;;;;;13.20;2.53;;;;;;;;;;5021790;28;20095;-67
2022/01/05 13:59:59;;;;;;;22.95;2.63;;;;;;;;;;5029139;28;20022;-68
2022/01/05 14:02:29;;;;;;;21.83;2.90;;;;;;;;;;5027209;28;20497;-70
2022/01/05 14:05:00;;;;;;;17.77;2.05;;;;;;;;;;5027198;28;20048;-68
2022/01/05 14:07:28;;;;;;;17.42;2.22;;;;;;;;;;5028216;28;20037;-67
2022/01/05 14:10:15;;;;;;;15.77;2.33;;;;;;;;;;5015426;28;20025;-68
2022/01/05 14:12:45;;;;;;;23.85;2.83;;;;;;;;;;5028232;28;20032;-67
2022/01/05 14:15:13;;;;;;;14.70;2.33;;;;;;;;;;5025256;28;20033;-66
2022/01/05 14:17:40;;;;;;;14.07;2.13;;;;;;;;;;5019563;28;20044;-66
2022/01/05 14:20:22;;;;;;;19.70;2.17;;;;;;;;;;5019516;28;20840;-66
2022/01/05 14:23:00;;;;;;;21.27;2.90;;;;;;;;;;5020639;28;20514;-65
2022/01/05 14:25:37;;;;;;;28.17;2.63;;;;;;;;;;5019643;28;20041;-63
2022/01/05 14:28:15;;;;;;;24.92;3.42;;;;;;;;;;5023526;28;20030;-67
2022/01/05 14:30:49;;;;;;;24.80;3.00;;;;;;;;;;5014145;28;20022;-66
2022/01/05 14:33:26;;;;;;;47.83;4.30;;;;;;;;;;5022361;28;20026;-66
2022/01/05 14:35:53;;;;;;;34.00;3.70;;;;;;;;;;5021901;28;20214;-66
2022/01/05 14:38:20;;;;;;;24.15;3.70;;;;;;;;;;5020342;28;20018;-67
2022/01/05 14:40:48;;;;;;;38.58;4.15;;;;;;;;;;5018929;28;20116;-65
2022/01/05 14:43:18;;;;;;;37.30;3.80;;;;;;;;;;5025711;28;20535;-65